Time;durP1;ratioP1;P1;durP2;ratioP2;P2;SDS_P1;SDS_P2;PMS_P1;PMS_P2;Temp;Humidity;BMP_temperature;BMP_pressure;BME280_temperature;BME280_humidity;BME280_pressure;Samples;Min_cycle;Max_cycle;Signal;HPM_P1;HPM_P2
2021/11/27 00:02:07;;;;;;;22.48;15.60;;;;;;;;;;5057406;28;20112;-91
2021/11/27 00:04:33;;;;;;;23.23;16.40;;;;;;;;;;5057234;28;20017;-90
2021/11/27 00:06:59;;;;;;;28.52;18.17;;;;;;;;;;5057453;28;20021;-92
2021/11/27 00:09:26;;;;;;;24.42;17.25;;;;;;;;;;5057570;28;20032;-92
2021/11/27 00:11:52;;;;;;;24.65;16.55;;;;;;;;;;5056313;28;20029;-91
2021/11/27 00:14:19;;;;;;;21.65;15.88;;;;;;;;;;5057379;28;20021;-91
2021/11/27 00:16:45;;;;;;;21.60;15.25;;;;;;;;;;5057004;28;20112;-91
2021/11/27 00:19:12;;;;;;;22.90;15.07;;;;;;;;;;5058438;28;20056;-93
2021/11/27 00:21:42;;;;;;;19.83;14.77;;;;;;;;;;5061349;28;20025;-91
2021/11/27 00:24:09;;;;;;;25.10;16.48;;;;;;;;;;5061140;28;20033;-91
2021/11/27 00:26:35;;;;;;;29.45;19.85;;;;;;;;;;5060183;28;20099;-92
2021/11/27 00:29:01;;;;;;;33.83;20.83;;;;;;;;;;5060059;28;20036;-91
2021/11/27 00:31:29;;;;;;;30.77;19.63;;;;;;;;;;5059556;28;20037;-91
2021/11/27 00:33:56;;;;;;;34.42;20.52;;;;;;;;;;5060856;28;20108;-91
2021/11/27 00:36:23;;;;;;;29.33;18.92;;;;;;;;;;5059846;28;20364;-91
2021/11/27 00:38:49;;;;;;;25.08;16.58;;;;;;;;;;5060767;28;20422;-91
2021/11/27 00:41:15;;;;;;;25.58;17.23;;;;;;;;;;5061104;28;20108;-91
2021/11/27 00:43:42;;;;;;;24.65;16.15;;;;;;;;;;5060306;28;20422;-90
2021/11/27 00:46:08;;;;;;;24.92;16.33;;;;;;;;;;5060741;28;20469;-91
2021/11/27 00:48:35;;;;;;;24.17;16.13;;;;;;;;;;5060895;28;20021;-90
2021/11/27 00:51:04;;;;;;;26.10;16.55;;;;;;;;;;5060853;28;20029;-91
2021/11/27 00:53:30;;;;;;;28.42;17.45;;;;;;;;;;5060546;28;20029;-91
2021/11/27 00:55:57;;;;;;;24.25;16.05;;;;;;;;;;5059138;28;20035;-90
2021/11/27 00:58:23;;;;;;;23.83;16.75;;;;;;;;;;5060623;28;20036;-89
2021/11/27 01:00:51;;;;;;;23.35;15.63;;;;;;;;;;5060304;28;20029;-89
2021/11/27 01:03:18;;;;;;;20.17;14.10;;;;;;;;;;5059368;28;20048;-89
2021/11/27 01:05:45;;;;;;;22.05;14.32;;;;;;;;;;5059399;28;20356;-90
2021/11/27 01:08:12;;;;;;;23.42;14.25;;;;;;;;;;5059484;28;20033;-91
2021/11/27 01:10:47;;;;;;;21.02;14.27;;;;;;;;;;5059396;28;20436;-90
2021/11/27 01:13:13;;;;;;;18.60;12.55;;;;;;;;;;5059373;28;20028;-89
2021/11/27 01:15:39;;;;;;;25.73;14.55;;;;;;;;;;5058999;28;20052;-90
2021/11/27 01:18:06;;;;;;;22.10;14.15;;;;;;;;;;5058824;28;20023;-91
2021/11/27 01:20:35;;;;;;;20.65;13.48;;;;;;;;;;5058776;28;20021;-90
2021/11/27 01:23:01;;;;;;;21.05;13.30;;;;;;;;;;5059867;28;20029;-91
2021/11/27 01:25:27;;;;;;;20.15;13.80;;;;;;;;;;5058867;28;20457;-89
2021/11/27 01:27:53;;;;;;;21.73;13.85;;;;;;;;;;5059563;28;20048;-91
2021/11/27 01:30:20;;;;;;;22.05;14.45;;;;;;;;;;5059422;28;20028;-91
2021/11/27 01:32:46;;;;;;;33.65;21.90;;;;;;;;;;5059858;28;20025;-91
2021/11/27 01:35:12;;;;;;;50.30;26.05;;;;;;;;;;5058819;28;20092;-91
2021/11/27 01:37:39;;;;;;;27.27;16.75;;;;;;;;;;5058679;28;20033;-90
2021/11/27 01:40:07;;;;;;;24.38;14.75;;;;;;;;;;5058548;28;20052;-91
2021/11/27 01:42:34;;;;;;;24.45;15.02;;;;;;;;;;5059822;28;20025;-92
2021/11/27 01:45:00;;;;;;;24.08;14.07;;;;;;;;;;5058350;28;20032;-90
2021/11/27 01:53:34;;;;;;;22.75;13.95;;;;;;;;;;5059468;28;20083;-89
2021/11/27 01:56:03;;;;;;;17.75;12.55;;;;;;;;;;5059340;28;20021;-90
2021/11/27 01:58:30;;;;;;;17.13;11.10;;;;;;;;;;5059057;28;20017;-91
2021/11/27 02:00:59;;;;;;;15.75;11.20;;;;;;;;;;5059775;28;20354;-91
2021/11/27 02:06:39;;;;;;;15.55;10.65;;;;;;;;;;5058896;28;20047;-91
2021/11/27 02:09:07;;;;;;;13.07;9.70;;;;;;;;;;5059090;28;20078;-91
2021/11/27 02:11:34;;;;;;;15.23;10.25;;;;;;;;;;5058242;28;20029;-91
2021/11/27 02:14:01;;;;;;;21.23;11.27;;;;;;;;;;5058082;28;20044;-91
2021/11/27 02:16:28;;;;;;;18.08;12.32;;;;;;;;;;5058045;28;20025;-91
2021/11/27 02:19:31;;;;;;;20.42;12.88;;;;;;;;;;5058369;28;20421;-90
2021/11/27 02:21:57;;;;;;;17.25;10.90;;;;;;;;;;5058548;28;20414;-90
2021/11/27 02:24:25;;;;;;;19.23;13.20;;;;;;;;;;5057530;28;20067;-91
2021/11/27 02:26:53;;;;;;;24.30;15.35;;;;;;;;;;5058502;28;20069;-91
2021/11/27 02:29:22;;;;;;;18.60;11.43;;;;;;;;;;5058444;28;20112;-91
2021/11/27 02:31:48;;;;;;;14.00;10.13;;;;;;;;;;5057835;28;20024;-90
2021/11/27 02:34:14;;;;;;;12.25;8.80;;;;;;;;;;5057416;28;20025;-92
2021/11/27 02:36:42;;;;;;;12.27;8.50;;;;;;;;;;5057526;28;20364;-92
2021/11/27 02:39:10;;;;;;;10.90;7.95;;;;;;;;;;5060467;28;20052;-92
2021/11/27 02:41:36;;;;;;;11.88;8.60;;;;;;;;;;5059686;28;20020;-93
2021/11/27 02:44:03;;;;;;;12.18;8.73;;;;;;;;;;5057749;28;20071;-92
2021/11/27 02:46:30;;;;;;;11.88;8.75;;;;;;;;;;5057427;28;20032;-92
2021/11/27 02:52:00;;;;;;;12.20;9.23;;;;;;;;;;5058463;28;20066;-92
2021/11/27 02:54:26;;;;;;;11.10;9.27;;;;;;;;;;5058303;28;20121;-92
2021/11/27 02:56:53;;;;;;;12.15;9.13;;;;;;;;;;5043735;28;20399;-92
2021/11/27 02:59:20;;;;;;;14.55;9.02;;;;;;;;;;5057185;28;20036;-91
2021/11/27 03:01:48;;;;;;;12.93;9.02;;;;;;;;;;5058195;28;20025;-91
2021/11/27 03:07:18;;;;;;;15.07;10.55;;;;;;;;;;5058440;28;20060;-91
2021/11/27 03:09:44;;;;;;;13.02;10.65;;;;;;;;;;5058187;28;20048;-91
2021/11/27 03:12:11;;;;;;;13.48;10.13;;;;;;;;;;5058060;28;20295;-93
2021/11/27 03:14:38;;;;;;;14.57;10.43;;;;;;;;;;5057324;28;20060;-92
2021/11/27 03:17:05;;;;;;;13.20;10.05;;;;;;;;;;5058131;28;20314;-91
2021/11/27 03:19:32;;;;;;;15.57;11.13;;;;;;;;;;5056811;28;20025;-93
2021/11/27 03:21:58;;;;;;;16.55;11.45;;;;;;;;;;5040309;28;20377;-91
2021/11/27 03:24:25;;;;;;;18.33;11.88;;;;;;;;;;5056783;28;20087;-92
2021/11/27 03:26:51;;;;;;;16.75;11.77;;;;;;;;;;5057709;28;20049;-92
2021/11/27 03:29:17;;;;;;;19.30;11.88;;;;;;;;;;5057906;28;20033;-91
2021/11/27 03:31:43;;;;;;;18.58;12.43;;;;;;;;;;5056813;28;20033;-92
2021/11/27 03:34:09;;;;;;;17.73;12.32;;;;;;;;;;5056772;28;20318;-93
2021/11/27 03:36:36;;;;;;;18.95;12.15;;;;;;;;;;5056484;28;20040;-92
2021/11/27 03:39:03;;;;;;;19.73;12.70;;;;;;;;;;5057494;28;20407;-91
2021/11/27 03:41:29;;;;;;;19.98;13.15;;;;;;;;;;5057338;28;20044;-92
2021/11/27 03:43:55;;;;;;;19.42;13.38;;;;;;;;;;5056423;28;20051;-93
2021/11/27 03:46:21;;;;;;;22.00;14.02;;;;;;;;;;5056738;28;20021;-92
2021/11/27 03:48:47;;;;;;;18.98;13.18;;;;;;;;;;5056604;28;20027;-92
2021/11/27 03:51:18;;;;;;;20.77;13.82;;;;;;;;;;5057470;28;20021;-91
2021/11/27 03:53:45;;;;;;;18.10;12.98;;;;;;;;;;5057644;28;20029;-91
2021/11/27 03:56:12;;;;;;;21.20;13.93;;;;;;;;;;5060808;28;20033;-91
2021/11/27 03:58:39;;;;;;;22.27;13.85;;;;;;;;;;5061604;28;20074;-92
2021/11/27 04:01:09;;;;;;;20.50;13.52;;;;;;;;;;5061726;28;20017;-91
2021/11/27 04:03:36;;;;;;;19.90;13.70;;;;;;;;;;5060464;28;20471;-91
2021/11/27 04:06:03;;;;;;;20.42;13.52;;;;;;;;;;5060517;28;20013;-92
2021/11/27 04:08:29;;;;;;;20.60;14.27;;;;;;;;;;5061360;28;20025;-93
2021/11/27 04:10:55;;;;;;;20.73;14.20;;;;;;;;;;5060829;28;20029;-91
2021/11/27 04:13:22;;;;;;;20.55;13.65;;;;;;;;;;5061090;28;20410;-93
2021/11/27 04:15:48;;;;;;;20.83;14.05;;;;;;;;;;5061283;28;20059;-92
2021/11/27 04:18:32;;;;;;;18.95;13.23;;;;;;;;;;5060344;28;20110;-90
2021/11/27 04:20:59;;;;;;;20.17;13.73;;;;;;;;;;5061230;28;20025;-90
2021/11/27 04:23:25;;;;;;;21.35;13.05;;;;;;;;;;5060115;28;20292;-90
2021/11/27 04:25:52;;;;;;;20.30;13.55;;;;;;;;;;5060066;28;20033;-91
2021/11/27 04:28:18;;;;;;;18.98;12.90;;;;;;;;;;5060647;28;20049;-91
2021/11/27 04:30:44;;;;;;;19.30;12.73;;;;;;;;;;5060985;28;20043;-91
2021/11/27 04:33:12;;;;;;;19.83;13.55;;;;;;;;;;5061169;28;20345;-90
2021/11/27 04:35:38;;;;;;;18.20;12.52;;;;;;;;;;5061302;28;20314;-92
2021/11/27 04:38:05;;;;;;;20.35;13.13;;;;;;;;;;5060424;28;20135;-91
2021/11/27 04:40:31;;;;;;;20.23;13.55;;;;;;;;;;5059916;28;20410;-91
2021/11/27 04:42:58;;;;;;;19.98;13.50;;;;;;;;;;5060737;28;20402;-92
2021/11/27 04:45:25;;;;;;;24.83;16.25;;;;;;;;;;5061078;28;20038;-90
2021/11/27 04:47:51;;;;;;;124.82;59.13;;;;;;;;;;5060897;28;20029;-92
2021/11/27 04:53:21;;;;;;;24.42;15.68;;;;;;;;;;5056333;28;20147;-91
2021/11/27 04:55:47;;;;;;;20.10;13.60;;;;;;;;;;5059556;28;20064;-91
2021/11/27 04:58:13;;;;;;;21.38;14.55;;;;;;;;;;5060631;28;20028;-91
2021/11/27 05:00:41;;;;;;;21.60;14.95;;;;;;;;;;5059253;28;20110;-91
2021/11/27 05:03:07;;;;;;;20.05;14.02;;;;;;;;;;5060167;28;20155;-91
2021/11/27 05:05:34;;;;;;;22.10;15.15;;;;;;;;;;5058075;28;20033;-91
2021/11/27 05:08:00;;;;;;;23.35;15.93;;;;;;;;;;5059309;28;20013;-91
2021/11/27 05:10:27;;;;;;;22.92;15.60;;;;;;;;;;5059169;28;20024;-91
2021/11/27 05:12:54;;;;;;;23.30;15.48;;;;;;;;;;5060188;28;20021;-91
2021/11/27 05:15:20;;;;;;;20.52;14.88;;;;;;;;;;5059106;28;20050;-91
2021/11/27 05:17:46;;;;;;;24.23;16.73;;;;;;;;;;5059142;28;20039;-91
2021/11/27 05:20:13;;;;;;;24.90;15.95;;;;;;;;;;5058982;28;20036;-91
2021/11/27 05:22:39;;;;;;;22.25;15.10;;;;;;;;;;5059876;28;20028;-90
2021/11/27 05:25:06;;;;;;;27.38;17.85;;;;;;;;;;5058777;28;20124;-92
2021/11/27 05:27:34;;;;;;;29.85;17.25;;;;;;;;;;5058526;28;20395;-92
2021/11/27 05:30:00;;;;;;;29.95;17.67;;;;;;;;;;5058668;28;20028;-91
2021/11/27 05:32:39;;;;;;;28.90;17.40;;;;;;;;;;5059858;28;20032;-91
2021/11/27 05:41:13;;;;;;;22.33;15.52;;;;;;;;;;5059543;28;20031;-91
2021/11/27 05:43:39;;;;;;;25.58;17.30;;;;;;;;;;5058962;28;20020;-91
2021/11/27 05:46:06;;;;;;;29.08;19.00;;;;;;;;;;5058499;28;20112;-91
2021/11/27 05:51:36;;;;;;;34.75;20.77;;;;;;;;;;5059667;28;20040;-90
2021/11/27 05:54:02;;;;;;;38.45;21.20;;;;;;;;;;5059046;28;20033;-90
2021/11/27 05:56:28;;;;;;;24.40;15.52;;;;;;;;;;5059687;28;20021;-90
2021/11/27 05:58:56;;;;;;;22.25;14.65;;;;;;;;;;5059249;28;20032;-92
2021/11/27 06:01:22;;;;;;;25.98;16.20;;;;;;;;;;5058114;28;20032;-92
2021/11/27 06:09:56;;;;;;;24.02;15.35;;;;;;;;;;5058810;28;20088;-92
2021/11/27 06:12:22;;;;;;;29.80;18.65;;;;;;;;;;5059219;28;20056;-91
2021/11/27 06:14:48;;;;;;;24.25;15.98;;;;;;;;;;5057982;28;20033;-91
2021/11/27 06:17:14;;;;;;;25.90;15.98;;;;;;;;;;5058863;28;20024;-90
2021/11/27 06:19:40;;;;;;;25.00;16.40;;;;;;;;;;5059048;28;20035;-90
2021/11/27 06:22:06;;;;;;;33.90;22.38;;;;;;;;;;5059066;28;20419;-90
2021/11/27 06:24:32;;;;;;;37.05;22.30;;;;;;;;;;5058730;28;20032;-90
2021/11/27 06:26:58;;;;;;;31.95;22.23;;;;;;;;;;5057787;28;20052;-92
2021/11/27 06:29:24;;;;;;;35.13;24.75;;;;;;;;;;5058684;28;20059;-90
2021/11/27 06:31:50;;;;;;;36.72;24.48;;;;;;;;;;5058826;28;20506;-90
2021/11/27 06:34:17;;;;;;;346.17;115.90;;;;;;;;;;5057958;28;20079;-91
2021/11/27 06:36:43;;;;;;;87.07;43.08;;;;;;;;;;5058399;28;20151;-90
2021/11/27 06:39:09;;;;;;;72.40;39.47;;;;;;;;;;5057818;28;20028;-90
2021/11/27 06:41:35;;;;;;;71.75;39.10;;;;;;;;;;5057747;28;20017;-90
2021/11/27 06:44:01;;;;;;;95.88;48.75;;;;;;;;;;5057789;28;20025;-91
2021/11/27 06:46:27;;;;;;;401.88;145.30;;;;;;;;;;5058177;28;20025;-91
2021/11/27 06:48:53;;;;;;;473.02;180.00;;;;;;;;;;5057291;28;20411;-91
2021/11/27 06:51:20;;;;;;;261.27;113.60;;;;;;;;;;5057032;28;20056;-89
2021/11/27 06:53:46;;;;;;;161.30;86.00;;;;;;;;;;5057129;28;20040;-91
2021/11/27 06:56:12;;;;;;;138.88;75.57;;;;;;;;;;5048107;28;20435;-90
2021/11/27 06:58:38;;;;;;;118.18;66.85;;;;;;;;;;5038433;28;20109;-91
2021/11/27 07:01:04;;;;;;;80.03;47.80;;;;;;;;;;5037336;28;20025;-90
2021/11/27 07:03:30;;;;;;;56.30;34.58;;;;;;;;;;5038518;28;20025;-90
2021/11/27 07:05:56;;;;;;;39.53;25.80;;;;;;;;;;5041969;28;20414;-91
2021/11/27 07:08:22;;;;;;;48.67;30.23;;;;;;;;;;5058242;28;20033;-91
2021/11/27 07:10:50;;;;;;;39.75;24.25;;;;;;;;;;5058532;28;20126;-91
2021/11/27 07:13:18;;;;;;;33.20;21.05;;;;;;;;;;5056934;28;20120;-92
2021/11/27 07:15:44;;;;;;;32.40;21.45;;;;;;;;;;5057983;28;20449;-91
2021/11/27 07:18:10;;;;;;;29.08;19.92;;;;;;;;;;5057095;28;20024;-92
2021/11/27 07:23:40;;;;;;;36.00;23.85;;;;;;;;;;5058009;28;20164;-91
2021/11/27 07:26:06;;;;;;;40.63;25.83;;;;;;;;;;5056804;28;20035;-91
2021/11/27 07:28:32;;;;;;;81.28;43.58;;;;;;;;;;5056534;28;20075;-92
2021/11/27 07:30:58;;;;;;;51.67;30.08;;;;;;;;;;5058024;28;20028;-92
2021/11/27 07:33:25;;;;;;;70.35;39.33;;;;;;;;;;5058024;28;20029;-92
2021/11/27 07:38:54;;;;;;;66.80;37.05;;;;;;;;;;5057896;28;20032;-92
2021/11/27 07:41:20;;;;;;;51.60;30.17;;;;;;;;;;5056510;28;20021;-91
2021/11/27 07:43:46;;;;;;;53.38;30.77;;;;;;;;;;5057849;28;20322;-92
2021/11/27 07:46:13;;;;;;;48.60;28.25;;;;;;;;;;5056727;28;20083;-91
2021/11/27 07:48:40;;;;;;;52.92;28.92;;;;;;;;;;5057879;28;20028;-92
2021/11/27 07:51:06;;;;;;;49.67;27.75;;;;;;;;;;5057637;28;20024;-91
2021/11/27 07:53:32;;;;;;;45.75;26.17;;;;;;;;;;5056403;28;20110;-92
2021/11/27 07:55:59;;;;;;;48.08;25.80;;;;;;;;;;5056667;28;20029;-92
2021/11/27 07:58:25;;;;;;;42.75;22.52;;;;;;;;;;5057701;28;20043;-93
2021/11/27 08:00:51;;;;;;;37.25;20.90;;;;;;;;;;5056378;28;20147;-92
2021/11/27 08:03:17;;;;;;;24.83;16.80;;;;;;;;;;5056435;28;20037;-91
2021/11/27 08:05:43;;;;;;;26.23;16.52;;;;;;;;;;5057461;28;20025;-92
2021/11/27 08:08:09;;;;;;;47.05;18.05;;;;;;;;;;5056530;28;20052;-92
2021/11/27 08:10:35;;;;;;;26.17;18.15;;;;;;;;;;5057575;28;20112;-91
2021/11/27 08:13:01;;;;;;;29.30;18.52;;;;;;;;;;5057519;28;20431;-93
2021/11/27 08:15:27;;;;;;;35.25;21.63;;;;;;;;;;5057404;28;20036;-93
2021/11/27 08:17:53;;;;;;;29.13;18.35;;;;;;;;;;5057216;28;20402;-91
2021/11/27 08:20:20;;;;;;;24.75;15.98;;;;;;;;;;5057354;28;20025;-92
2021/11/27 08:22:46;;;;;;;30.13;18.65;;;;;;;;;;5056985;28;20025;-91
2021/11/27 08:25:12;;;;;;;29.70;19.33;;;;;;;;;;5057199;28;20296;-93
2021/11/27 08:27:38;;;;;;;24.45;16.83;;;;;;;;;;5056171;28;20049;-91
2021/11/27 08:30:05;;;;;;;24.52;16.38;;;;;;;;;;5057604;28;20397;-93
2021/11/27 08:32:32;;;;;;;22.73;15.93;;;;;;;;;;5057226;28;20040;-92
2021/11/27 08:34:58;;;;;;;24.15;16.73;;;;;;;;;;5059797;28;20040;-91
2021/11/27 08:37:25;;;;;;;31.02;17.88;;;;;;;;;;5058924;28;20025;-91
2021/11/27 08:39:51;;;;;;;26.00;18.13;;;;;;;;;;5058762;28;20025;-92
2021/11/27 08:42:21;;;;;;;26.45;16.75;;;;;;;;;;5060818;28;20024;-93
2021/11/27 08:44:47;;;;;;;25.95;17.10;;;;;;;;;;5061120;28;20033;-92
2021/11/27 08:47:13;;;;;;;22.80;15.52;;;;;;;;;;5061046;28;20132;-92
2021/11/27 08:49:40;;;;;;;21.75;15.85;;;;;;;;;;5060315;28;20071;-91
2021/11/27 08:52:06;;;;;;;24.13;16.45;;;;;;;;;;5060932;28;20040;-92
2021/11/27 08:54:32;;;;;;;22.48;15.05;;;;;;;;;;5059679;28;20128;-92
2021/11/27 08:56:59;;;;;;;38.22;20.08;;;;;;;;;;5060400;28;20509;-92
2021/11/27 08:59:25;;;;;;;25.00;16.00;;;;;;;;;;5060116;28;20071;-91
2021/11/27 09:01:52;;;;;;;28.73;17.25;;;;;;;;;;5059360;28;20060;-92
2021/11/27 09:04:33;;;;;;;29.45;16.30;;;;;;;;;;5059368;28;20322;-92
2021/11/27 09:07:00;;;;;;;27.85;16.67;;;;;;;;;;5059521;28;20017;-91
2021/11/27 09:09:26;;;;;;;28.55;17.30;;;;;;;;;;5060820;28;20115;-92
2021/11/27 09:11:53;;;;;;;27.10;16.75;;;;;;;;;;5059121;28;20528;-92
2021/11/27 09:14:19;;;;;;;26.25;17.35;;;;;;;;;;5060544;28;20033;-92
2021/11/27 09:16:45;;;;;;;28.08;16.92;;;;;;;;;;5060164;28;20060;-91
2021/11/27 09:19:12;;;;;;;22.80;14.43;;;;;;;;;;5058985;28;20021;-92
2021/11/27 09:21:38;;;;;;;23.42;14.90;;;;;;;;;;5059090;28;20025;-91
2021/11/27 09:24:04;;;;;;;20.83;13.88;;;;;;;;;;5060339;28;20021;-92
2021/11/27 09:26:31;;;;;;;25.23;15.80;;;;;;;;;;5058848;28;20041;-91
2021/11/27 09:28:57;;;;;;;25.42;15.73;;;;;;;;;;5060376;28;20087;-93
2021/11/27 09:31:23;;;;;;;27.42;17.30;;;;;;;;;;5059120;28;20029;-91
2021/11/27 09:33:49;;;;;;;29.92;18.08;;;;;;;;;;5059942;28;20021;-92
2021/11/27 09:39:56;;;;;;;33.22;20.30;;;;;;;;;;5059691;28;20063;-92
2021/11/27 09:42:23;;;;;;;27.05;16.88;;;;;;;;;;5059449;28;20021;-92
2021/11/27 09:44:50;;;;;;;35.20;19.73;;;;;;;;;;5058556;28;20414;-93
2021/11/27 09:47:16;;;;;;;35.78;21.50;;;;;;;;;;5058657;28;20029;-91
2021/11/27 09:49:43;;;;;;;32.85;19.48;;;;;;;;;;5058656;28;20025;-92
2021/11/27 09:52:09;;;;;;;39.08;22.10;;;;;;;;;;5059178;28;20063;-91
2021/11/27 09:54:35;;;;;;;33.25;19.25;;;;;;;;;;5058274;28;20350;-91
2021/11/27 09:57:06;;;;;;;30.35;18.40;;;;;;;;;;5059752;28;20056;-92
2021/11/27 09:59:32;;;;;;;35.10;20.58;;;;;;;;;;5058322;28;20029;-92
2021/11/27 10:01:58;;;;;;;40.42;23.13;;;;;;;;;;5058222;28;20029;-92
2021/11/27 10:04:26;;;;;;;44.30;23.52;;;;;;;;;;5059356;28;20025;-91
2021/11/27 10:06:53;;;;;;;47.75;25.80;;;;;;;;;;5059426;28;20028;-92
2021/11/27 10:09:20;;;;;;;43.03;24.85;;;;;;;;;;5058763;28;20074;-92
2021/11/27 10:11:47;;;;;;;44.50;25.15;;;;;;;;;;5059431;28;20040;-91
2021/11/27 10:14:13;;;;;;;41.65;23.42;;;;;;;;;;5058120;28;20017;-91
2021/11/27 10:16:58;;;;;;;27.20;17.38;;;;;;;;;;5058980;28;20017;-91
2021/11/27 10:19:48;;;;;;;50.33;25.05;;;;;;;;;;5057914;28;20055;-90
2021/11/27 10:22:16;;;;;;;30.95;18.50;;;;;;;;;;5058645;28;20040;-91
2021/11/27 10:24:46;;;;;;;34.67;20.13;;;;;;;;;;5057960;28;20112;-91
2021/11/27 10:27:23;;;;;;;39.25;22.42;;;;;;;;;;5057625;28;20048;-92
2021/11/27 10:30:00;;;;;;;47.88;24.85;;;;;;;;;;5059160;28;20032;-92
2021/11/27 10:32:31;;;;;;;40.28;24.15;;;;;;;;;;5057816;28;20036;-92
2021/11/27 10:34:57;;;;;;;36.65;23.27;;;;;;;;;;5059128;28;20053;-91
2021/11/27 10:37:28;;;;;;;35.30;21.48;;;;;;;;;;5058589;28;20029;-91
2021/11/27 10:40:02;;;;;;;33.58;21.63;;;;;;;;;;5057488;28;20033;-91
2021/11/27 10:42:29;;;;;;;35.25;22.85;;;;;;;;;;5058391;28;20021;-91
2021/11/27 10:44:56;;;;;;;39.72;25.02;;;;;;;;;;5057304;28;20017;-89
2021/11/27 10:47:22;;;;;;;34.25;20.38;;;;;;;;;;5058376;28;20025;-92
2021/11/27 10:49:48;;;;;;;37.70;24.42;;;;;;;;;;5058431;28;20032;-91
2021/11/27 10:52:16;;;;;;;32.67;20.25;;;;;;;;;;5058370;28;20053;-91
2021/11/27 10:54:43;;;;;;;39.33;22.23;;;;;;;;;;5058152;28;20406;-90
2021/11/27 10:57:24;;;;;;;38.58;22.50;;;;;;;;;;5057432;28;20029;-90
2021/11/27 10:59:50;;;;;;;28.40;19.60;;;;;;;;;;5058553;28;20047;-90
2021/11/27 11:02:17;;;;;;;27.02;18.20;;;;;;;;;;5057829;28;20028;-91
2021/11/27 11:04:43;;;;;;;24.60;17.77;;;;;;;;;;5056460;28;20359;-90
2021/11/27 11:07:14;;;;;;;40.03;20.70;;;;;;;;;;5058533;28;20017;-91
2021/11/27 11:09:58;;;;;;;41.05;23.98;;;;;;;;;;5057058;28;20074;-92
2021/11/27 11:12:43;;;;;;;36.78;21.40;;;;;;;;;;5057785;28;20038;-91
2021/11/27 11:15:14;;;;;;;44.38;20.67;;;;;;;;;;5058046;28;20025;-91
2021/11/27 11:17:41;;;;;;;33.38;19.67;;;;;;;;;;5058334;28;20024;-91
2021/11/27 11:20:27;;;;;;;36.17;19.60;;;;;;;;;;5056989;28;20029;-91
2021/11/27 11:22:59;;;;;;;34.38;20.33;;;;;;;;;;5056854;28;20032;-92
2021/11/27 11:25:25;;;;;;;38.47;22.13;;;;;;;;;;5058185;28;20044;-90
2021/11/27 11:27:51;;;;;;;36.25;21.25;;;;;;;;;;5057582;28;20040;-90
2021/11/27 11:30:20;;;;;;;34.03;21.77;;;;;;;;;;5056839;28;20029;-92
2021/11/27 11:32:47;;;;;;;29.17;19.90;;;;;;;;;;5056716;28;20037;-91
2021/11/27 11:35:14;;;;;;;31.60;20.88;;;;;;;;;;5057923;28;20029;-92
2021/11/27 11:37:40;;;;;;;46.58;23.92;;;;;;;;;;5057966;28;20310;-91
2021/11/27 11:40:07;;;;;;;38.65;25.75;;;;;;;;;;5056436;28;20037;-92
2021/11/27 11:42:33;;;;;;;38.67;25.00;;;;;;;;;;5056928;28;20020;-92
2021/11/27 11:44:59;;;;;;;39.22;23.90;;;;;;;;;;5056594;28;20025;-92
2021/11/27 11:47:26;;;;;;;41.17;23.67;;;;;;;;;;5057932;28;20021;-91
2021/11/27 11:49:57;;;;;;;40.70;24.48;;;;;;;;;;5057464;28;20032;-92
2021/11/27 11:52:23;;;;;;;34.15;22.27;;;;;;;;;;5056557;28;20037;-92
2021/11/27 11:54:50;;;;;;;34.97;22.38;;;;;;;;;;5057446;28;20024;-91
2021/11/27 11:57:16;;;;;;;41.63;24.00;;;;;;;;;;5057568;28;20082;-91
2021/11/27 11:59:42;;;;;;;37.95;22.30;;;;;;;;;;5057722;28;20028;-92
2021/11/27 12:02:12;;;;;;;40.00;22.95;;;;;;;;;;5056474;28;20303;-93
2021/11/27 12:04:38;;;;;;;40.22;23.63;;;;;;;;;;5039291;28;20022;-92
2021/11/27 12:16:15;;;;;;;37.33;23.08;;;;;;;;;;5041556;28;20032;-92
2021/11/27 12:19:17;;;;;;;40.10;23.23;;;;;;;;;;5041414;28;20021;-92
2021/11/27 12:21:43;;;;;;;34.05;22.00;;;;;;;;;;5000176;28;20027;-93
2021/11/27 12:24:22;;;;;;;33.30;22.25;;;;;;;;;;4984020;28;20487;-92
2021/11/27 12:27:06;;;;;;;34.83;23.02;;;;;;;;;;4983713;28;20218;-93
2021/11/27 12:29:32;;;;;;;35.58;22.55;;;;;;;;;;4983854;28;20161;-93
2021/11/27 12:32:08;;;;;;;33.88;22.67;;;;;;;;;;4984105;28;20035;-91
2021/11/27 12:34:40;;;;;;;43.15;23.70;;;;;;;;;;5005065;28;20030;-92
2021/11/27 12:37:25;;;;;;;42.37;23.73;;;;;;;;;;4985401;28;20040;-91
2021/11/27 12:39:51;;;;;;;33.47;22.48;;;;;;;;;;4984135;28;20809;-91
2021/11/27 12:42:19;;;;;;;36.40;21.77;;;;;;;;;;4999928;28;20038;-93
2021/11/27 12:44:48;;;;;;;36.00;21.75;;;;;;;;;;4999754;28;20029;-91
2021/11/27 12:47:16;;;;;;;32.88;21.52;;;;;;;;;;4999603;28;20022;-92
2021/11/27 12:49:42;;;;;;;34.38;21.92;;;;;;;;;;4983235;28;20086;-92
2021/11/27 12:52:11;;;;;;;32.85;21.25;;;;;;;;;;4983076;28;20034;-91
2021/11/27 12:54:37;;;;;;;34.40;22.30;;;;;;;;;;4985945;28;20042;-91
2021/11/27 12:57:07;;;;;;;39.13;24.80;;;;;;;;;;5039614;28;20021;-91
2021/11/27 12:59:33;;;;;;;47.03;27.80;;;;;;;;;;5039669;28;20032;-92
2021/11/27 13:02:00;;;;;;;45.08;27.15;;;;;;;;;;5039713;28;20017;-92
2021/11/27 13:04:32;;;;;;;36.42;23.98;;;;;;;;;;5040632;28;20307;-92
2021/11/27 13:10:03;;;;;;;38.97;25.23;;;;;;;;;;5040262;28;20048;-91
2021/11/27 13:12:30;;;;;;;45.13;27.88;;;;;;;;;;5040791;28;20018;-91
2021/11/27 13:15:14;;;;;;;54.55;33.03;;;;;;;;;;5040100;28;20026;-91
2021/11/27 13:17:40;;;;;;;50.88;30.17;;;;;;;;;;5039526;28;20021;-91
2021/11/27 13:20:06;;;;;;;51.72;31.45;;;;;;;;;;5040274;28;20075;-92
2021/11/27 13:25:40;;;;;;;46.17;29.85;;;;;;;;;;5039765;28;20044;-92
2021/11/27 13:28:06;;;;;;;58.05;34.05;;;;;;;;;;5039485;28;20061;-92
2021/11/27 13:30:38;;;;;;;54.95;34.15;;;;;;;;;;5040069;28;20029;-92
2021/11/27 13:33:04;;;;;;;56.45;35.20;;;;;;;;;;5038941;28;20025;-91
2021/11/27 13:35:36;;;;;;;58.63;35.97;;;;;;;;;;5038826;28;20040;-94
2021/11/27 13:38:02;;;;;;;62.85;37.28;;;;;;;;;;5038775;28;20067;-90
2021/11/27 13:40:29;;;;;;;62.60;38.47;;;;;;;;;;5039902;28;20037;-91
2021/11/27 13:43:01;;;;;;;70.72;40.97;;;;;;;;;;5039552;28;20022;-92
2021/11/27 13:45:27;;;;;;;72.88;41.90;;;;;;;;;;5039620;28;20026;-91
2021/11/27 13:47:57;;;;;;;76.65;45.08;;;;;;;;;;5039922;28;20032;-91
2021/11/27 13:50:58;;;;;;;75.28;43.63;;;;;;;;;;5039529;28;20109;-91
2021/11/27 13:53:24;;;;;;;76.72;43.33;;;;;;;;;;4998303;28;20057;-91
2021/11/27 13:55:54;;;;;;;74.57;41.40;;;;;;;;;;4998423;28;20035;-91
2021/11/27 13:58:21;;;;;;;67.25;40.63;;;;;;;;;;4982127;28;20089;-91
2021/11/27 14:00:48;;;;;;;71.63;40.03;;;;;;;;;;4981783;28;20038;-91
2021/11/27 14:03:15;;;;;;;69.95;41.53;;;;;;;;;;4998364;28;20025;-91
2021/11/27 14:05:52;;;;;;;101.90;54.03;;;;;;;;;;4981693;28;20133;-91
2021/11/27 14:08:20;;;;;;;86.05;50.35;;;;;;;;;;5013703;28;20040;-83
2021/11/27 14:10:57;;;;;;;70.63;43.45;;;;;;;;;;5017266;28;20105;-84
2021/11/27 14:13:24;;;;;;;74.18;42.35;;;;;;;;;;5017404;28;20034;-84
2021/11/27 14:15:50;;;;;;;67.80;40.80;;;;;;;;;;5000397;28;20034;-83
2021/11/27 14:18:18;;;;;;;75.47;42.78;;;;;;;;;;5016201;28;20061;-84
2021/11/27 14:20:51;;;;;;;103.32;56.13;;;;;;;;;;4981398;28;20467;-84
2021/11/27 14:23:18;;;;;;;109.15;60.63;;;;;;;;;;4981154;28;20120;-84
2021/11/27 14:26:02;;;;;;;108.35;59.97;;;;;;;;;;5003876;28;20033;-83
2021/11/27 14:28:28;;;;;;;73.05;41.65;;;;;;;;;;5056988;28;20083;-83
2021/11/27 14:30:54;;;;;;;67.45;42.40;;;;;;;;;;5057384;28;20031;-84
2021/11/27 14:33:20;;;;;;;78.78;49.63;;;;;;;;;;5058688;28;20021;-84
2021/11/27 14:36:07;;;;;;;68.82;41.15;;;;;;;;;;5058513;28;20041;-82
2021/11/27 14:38:38;;;;;;;71.82;41.42;;;;;;;;;;5057090;28;20028;-84
2021/11/27 14:41:06;;;;;;;67.18;39.25;;;;;;;;;;5057001;28;20036;-83
2021/11/27 14:43:32;;;;;;;60.60;38.28;;;;;;;;;;5058540;28;20032;-83
2021/11/27 14:45:58;;;;;;;63.67;39.92;;;;;;;;;;5056988;28;20025;-84
2021/11/27 14:48:31;;;;;;;70.90;40.90;;;;;;;;;;5058446;28;20028;-84
2021/11/27 14:50:58;;;;;;;78.65;45.55;;;;;;;;;;5058170;28;20049;-83
2021/11/27 14:53:39;;;;;;;95.47;54.15;;;;;;;;;;5057426;28;20037;-84
2021/11/27 14:56:06;;;;;;;111.05;60.10;;;;;;;;;;5057612;28;20159;-83
2021/11/27 14:58:32;;;;;;;110.97;65.07;;;;;;;;;;5058533;28;20024;-83
2021/11/27 15:00:59;;;;;;;96.40;55.47;;;;;;;;;;5057895;28;20024;-83
2021/11/27 15:03:26;;;;;;;72.55;44.70;;;;;;;;;;5056694;28;20032;-87
2021/11/27 15:06:22;;;;;;;63.28;38.95;;;;;;;;;;5058153;28;20092;-92
2021/11/27 15:08:49;;;;;;;65.03;38.72;;;;;;;;;;5057405;28;20021;-81
2021/11/27 15:11:15;;;;;;;68.70;38.83;;;;;;;;;;5056387;28;20037;-81
2021/11/27 15:13:41;;;;;;;61.65;37.67;;;;;;;;;;5055227;28;20021;-80
2021/11/27 15:16:07;;;;;;;57.03;33.90;;;;;;;;;;5056154;28;20078;-80
2021/11/27 15:18:33;;;;;;;61.30;37.78;;;;;;;;;;5046263;28;20052;-79
2021/11/27 15:21:00;;;;;;;71.00;40.67;;;;;;;;;;5055342;28;20028;-80